sensor_id;sensor_type;location;lat;lon;timestamp;temperature;humidity
61016;DHT22;46902;52.920;6.536;2023-06-19T00:01:54;22.70;69.30
61016;DHT22;46902;52.920;6.536;2023-06-19T00:04:20;22.70;69.10
61016;DHT22;46902;52.920;6.536;2023-06-19T00:06:45;22.70;68.60
61016;DHT22;46902;52.920;6.536;2023-06-19T00:09:11;22.70;68.20
61016;DHT22;46902;52.920;6.536;2023-06-19T00:11:36;22.70;68.00
61016;DHT22;46902;52.920;6.536;2023-06-19T00:14:02;22.70;67.50
61016;DHT22;46902;52.920;6.536;2023-06-19T00:16:28;22.70;67.50
61016;DHT22;46902;52.920;6.536;2023-06-19T00:18:53;22.70;66.90
61016;DHT22;46902;52.920;6.536;2023-06-19T00:21:24;22.70;67.00
61016;DHT22;46902;52.920;6.536;2023-06-19T00:23:51;22.70;66.40
61016;DHT22;46902;52.920;6.536;2023-06-19T00:26:17;22.70;66.30
61016;DHT22;46902;52.920;6.536;2023-06-19T00:28:43;22.70;66.20
61016;DHT22;46902;52.920;6.536;2023-06-19T00:31:11;22.70;66.10
61016;DHT22;46902;52.920;6.536;2023-06-19T00:33:39;22.70;65.90
61016;DHT22;46902;52.920;6.536;2023-06-19T00:36:12;22.70;65.90
61016;DHT22;46902;52.920;6.536;2023-06-19T00:38:38;22.80;65.60
61016;DHT22;46902;52.920;6.536;2023-06-19T00:41:04;22.70;65.50
61016;DHT22;46902;52.920;6.536;2023-06-19T00:43:31;22.70;65.20
61016;DHT22;46902;52.920;6.536;2023-06-19T00:45:58;22.70;65.00
61016;DHT22;46902;52.920;6.536;2023-06-19T00:48:24;22.80;65.00
61016;DHT22;46902;52.920;6.536;2023-06-19T00:50:51;22.80;64.70
61016;DHT22;46902;52.920;6.536;2023-06-19T00:53:17;22.80;64.70
61016;DHT22;46902;52.920;6.536;2023-06-19T00:55:45;22.80;64.50
61016;DHT22;46902;52.920;6.536;2023-06-19T00:58:12;22.80;64.20
61016;DHT22;46902;52.920;6.536;2023-06-19T01:00:38;22.80;64.20
61016;DHT22;46902;52.920;6.536;2023-06-19T01:03:04;22.80;64.10
61016;DHT22;46902;52.920;6.536;2023-06-19T01:05:30;22.80;64.20
61016;DHT22;46902;52.920;6.536;2023-06-19T01:11:02;22.80;63.50
61016;DHT22;46902;52.920;6.536;2023-06-19T01:14:03;22.80;63.70
61016;DHT22;46902;52.920;6.536;2023-06-19T01:16:31;22.80;63.40
61016;DHT22;46902;52.920;6.536;2023-06-19T01:18:57;22.80;63.70
61016;DHT22;46902;52.920;6.536;2023-06-19T01:21:23;22.80;63.60
61016;DHT22;46902;52.920;6.536;2023-06-19T01:23:49;22.80;63.70
61016;DHT22;46902;52.920;6.536;2023-06-19T01:26:15;22.80;63.70
61016;DHT22;46902;52.920;6.536;2023-06-19T01:28:43;22.80;63.50
61016;DHT22;46902;52.920;6.536;2023-06-19T01:31:15;22.80;63.50
61016;DHT22;46902;52.920;6.536;2023-06-19T01:33:45;22.80;63.40
61016;DHT22;46902;52.920;6.536;2023-06-19T01:36:11;22.80;63.30
61016;DHT22;46902;52.920;6.536;2023-06-19T01:38:39;22.80;63.20
61016;DHT22;46902;52.920;6.536;2023-06-19T01:41:06;22.80;63.20
61016;DHT22;46902;52.920;6.536;2023-06-19T01:43:33;22.80;63.20
61016;DHT22;46902;52.920;6.536;2023-06-19T01:46:00;22.80;63.70
61016;DHT22;46902;52.920;6.536;2023-06-19T01:48:27;22.80;63.60
61016;DHT22;46902;52.920;6.536;2023-06-19T01:50:53;22.80;63.50
61016;DHT22;46902;52.920;6.536;2023-06-19T01:53:19;22.80;63.70
61016;DHT22;46902;52.920;6.536;2023-06-19T01:55:44;22.80;63.60
61016;DHT22;46902;52.920;6.536;2023-06-19T01:58:10;22.80;63.50
61016;DHT22;46902;52.920;6.536;2023-06-19T02:00:35;22.80;63.50
61016;DHT22;46902;52.920;6.536;2023-06-19T02:03:02;22.80;63.50
61016;DHT22;46902;52.920;6.536;2023-06-19T02:05:29;22.80;63.50
61016;DHT22;46902;52.920;6.536;2023-06-19T02:07:55;22.80;63.50
61016;DHT22;46902;52.920;6.536;2023-06-19T02:10:20;22.80;63.50
61016;DHT22;46902;52.920;6.536;2023-06-19T02:12:46;22.80;63.80
61016;DHT22;46902;52.920;6.536;2023-06-19T02:15:12;22.80;64.10
61016;DHT22;46902;52.920;6.536;2023-06-19T02:17:37;22.80;64.10
61016;DHT22;46902;52.920;6.536;2023-06-19T02:20:04;22.80;64.20
61016;DHT22;46902;52.920;6.536;2023-06-19T02:22:33;22.80;64.30
61016;DHT22;46902;52.920;6.536;2023-06-19T02:24:58;22.80;64.30
61016;DHT22;46902;52.920;6.536;2023-06-19T02:27:24;22.80;64.50
61016;DHT22;46902;52.920;6.536;2023-06-19T02:29:50;22.80;64.40
61016;DHT22;46902;52.920;6.536;2023-06-19T02:32:15;22.80;64.40
61016;DHT22;46902;52.920;6.536;2023-06-19T02:34:41;22.80;64.40
61016;DHT22;46902;52.920;6.536;2023-06-19T02:37:06;22.80;64.60
61016;DHT22;46902;52.920;6.536;2023-06-19T02:39:33;22.80;64.60
61016;DHT22;46902;52.920;6.536;2023-06-19T02:41:59;22.80;64.70
61016;DHT22;46902;52.920;6.536;2023-06-19T02:44:25;22.80;64.80
61016;DHT22;46902;52.920;6.536;2023-06-19T02:46:50;22.70;64.80
61016;DHT22;46902;52.920;6.536;2023-06-19T02:49:16;22.80;65.10
61016;DHT22;46902;52.920;6.536;2023-06-19T02:51:42;22.70;65.10
61016;DHT22;46902;52.920;6.536;2023-06-19T02:54:07;22.70;65.30
61016;DHT22;46902;52.920;6.536;2023-06-19T02:56:33;22.70;65.60
61016;DHT22;46902;52.920;6.536;2023-06-19T02:58:59;22.70;65.70
61016;DHT22;46902;52.920;6.536;2023-06-19T03:01:24;22.70;65.90
61016;DHT22;46902;52.920;6.536;2023-06-19T03:03:50;22.70;66.10
61016;DHT22;46902;52.920;6.536;2023-06-19T03:06:17;22.70;66.50
61016;DHT22;46902;52.920;6.536;2023-06-19T03:08:43;22.70;66.70
61016;DHT22;46902;52.920;6.536;2023-06-19T03:11:09;22.70;66.70
61016;DHT22;46902;52.920;6.536;2023-06-19T03:13:50;22.70;66.90
61016;DHT22;46902;52.920;6.536;2023-06-19T03:16:16;22.70;67.30
61016;DHT22;46902;52.920;6.536;2023-06-19T03:18:43;22.60;67.80
61016;DHT22;46902;52.920;6.536;2023-06-19T03:21:15;22.60;68.20
61016;DHT22;46902;52.920;6.536;2023-06-19T03:23:41;22.60;68.60
61016;DHT22;46902;52.920;6.536;2023-06-19T03:26:07;22.50;69.50
61016;DHT22;46902;52.920;6.536;2023-06-19T03:28:33;22.50;69.30
61016;DHT22;46902;52.920;6.536;2023-06-19T03:30:59;22.50;69.60
61016;DHT22;46902;52.920;6.536;2023-06-19T03:33:26;22.50;70.20
61016;DHT22;46902;52.920;6.536;2023-06-19T03:35:51;22.40;70.40
61016;DHT22;46902;52.920;6.536;2023-06-19T03:38:17;22.40;70.80
61016;DHT22;46902;52.920;6.536;2023-06-19T03:40:42;22.40;71.00
61016;DHT22;46902;52.920;6.536;2023-06-19T03:43:08;22.30;71.50
61016;DHT22;46902;52.920;6.536;2023-06-19T03:45:34;22.20;72.00
61016;DHT22;46902;52.920;6.536;2023-06-19T03:47:59;22.20;72.40
61016;DHT22;46902;52.920;6.536;2023-06-19T03:50:25;22.10;72.80
61016;DHT22;46902;52.920;6.536;2023-06-19T03:52:50;22.10;73.40
61016;DHT22;46902;52.920;6.536;2023-06-19T03:55:16;22.00;73.90
61016;DHT22;46902;52.920;6.536;2023-06-19T03:57:42;22.00;74.30
61016;DHT22;46902;52.920;6.536;2023-06-19T04:00:07;21.90;74.70
61016;DHT22;46902;52.920;6.536;2023-06-19T04:02:36;21.90;75.20
61016;DHT22;46902;52.920;6.536;2023-06-19T04:05:02;21.80;75.60
61016;DHT22;46902;52.920;6.536;2023-06-19T04:07:28;21.70;76.00
61016;DHT22;46902;52.920;6.536;2023-06-19T04:09:54;21.70;76.40
61016;DHT22;46902;52.920;6.536;2023-06-19T04:12:20;21.70;76.70
61016;DHT22;46902;52.920;6.536;2023-06-19T04:14:45;21.70;77.10
61016;DHT22;46902;52.920;6.536;2023-06-19T04:17:11;21.60;77.40
61016;DHT22;46902;52.920;6.536;2023-06-19T04:19:37;21.60;77.60
61016;DHT22;46902;52.920;6.536;2023-06-19T04:22:02;21.60;78.00
61016;DHT22;46902;52.920;6.536;2023-06-19T04:24:28;21.50;78.30
61016;DHT22;46902;52.920;6.536;2023-06-19T04:26:54;21.50;78.60
61016;DHT22;46902;52.920;6.536;2023-06-19T04:29:19;21.50;78.90
61016;DHT22;46902;52.920;6.536;2023-06-19T04:31:45;21.50;79.20
61016;DHT22;46902;52.920;6.536;2023-06-19T04:34:16;21.40;79.70
61016;DHT22;46902;52.920;6.536;2023-06-19T04:36:42;21.40;80.00
61016;DHT22;46902;52.920;6.536;2023-06-19T04:39:08;21.40;80.30
61016;DHT22;46902;52.920;6.536;2023-06-19T04:41:34;21.40;80.60
61016;DHT22;46902;52.920;6.536;2023-06-19T04:44:07;21.40;80.80
61016;DHT22;46902;52.920;6.536;2023-06-19T04:46:33;21.40;81.20
61016;DHT22;46902;52.920;6.536;2023-06-19T04:48:59;21.40;81.60
61016;DHT22;46902;52.920;6.536;2023-06-19T04:51:25;21.40;82.00
61016;DHT22;46902;52.920;6.536;2023-06-19T04:53:52;21.30;82.50
61016;DHT22;46902;52.920;6.536;2023-06-19T04:56:18;21.30;83.10
61016;DHT22;46902;52.920;6.536;2023-06-19T04:58:43;21.30;83.60
61016;DHT22;46902;52.920;6.536;2023-06-19T05:01:13;21.30;84.00
61016;DHT22;46902;52.920;6.536;2023-06-19T05:03:39;21.30;84.50
61016;DHT22;46902;52.920;6.536;2023-06-19T05:06:05;21.30;84.70
61016;DHT22;46902;52.920;6.536;2023-06-19T05:08:31;21.30;85.00
61016;DHT22;46902;52.920;6.536;2023-06-19T05:10:57;21.30;85.20
61016;DHT22;46902;52.920;6.536;2023-06-19T05:13:24;21.30;85.60
61016;DHT22;46902;52.920;6.536;2023-06-19T05:15:49;21.30;85.90
61016;DHT22;46902;52.920;6.536;2023-06-19T05:18:16;21.30;86.40
61016;DHT22;46902;52.920;6.536;2023-06-19T05:20:42;21.30;87.10
61016;DHT22;46902;52.920;6.536;2023-06-19T05:23:07;21.40;87.50
61016;DHT22;46902;52.920;6.536;2023-06-19T05:25:33;21.40;87.90
61016;DHT22;46902;52.920;6.536;2023-06-19T05:27:59;21.40;88.20
61016;DHT22;46902;52.920;6.536;2023-06-19T05:30:24;21.50;88.90
61016;DHT22;46902;52.920;6.536;2023-06-19T05:32:50;21.50;89.60
61016;DHT22;46902;52.920;6.536;2023-06-19T05:35:15;21.50;89.70
61016;DHT22;46902;52.920;6.536;2023-06-19T05:37:41;21.50;90.00
61016;DHT22;46902;52.920;6.536;2023-06-19T05:40:09;21.50;90.20
61016;DHT22;46902;52.920;6.536;2023-06-19T05:42:38;21.50;90.50
61016;DHT22;46902;52.920;6.536;2023-06-19T05:45:04;21.40;90.80
61016;DHT22;46902;52.920;6.536;2023-06-19T05:47:30;21.50;91.10
61016;DHT22;46902;52.920;6.536;2023-06-19T05:49:59;21.50;91.50
61016;DHT22;46902;52.920;6.536;2023-06-19T05:52:25;21.50;91.80
61016;DHT22;46902;52.920;6.536;2023-06-19T05:54:51;21.50;91.80
61016;DHT22;46902;52.920;6.536;2023-06-19T05:57:18;21.50;92.30
61016;DHT22;46902;52.920;6.536;2023-06-19T05:59:49;21.50;92.50
61016;DHT22;46902;52.920;6.536;2023-06-19T06:02:16;21.60;92.70
61016;DHT22;46902;52.920;6.536;2023-06-19T06:04:43;21.70;92.90
61016;DHT22;46902;52.920;6.536;2023-06-19T06:07:08;21.70;93.10
61016;DHT22;46902;52.920;6.536;2023-06-19T06:09:34;21.70;93.40
61016;DHT22;46902;52.920;6.536;2023-06-19T06:12:00;21.70;93.60
61016;DHT22;46902;52.920;6.536;2023-06-19T06:14:26;21.60;93.80
61016;DHT22;46902;52.920;6.536;2023-06-19T06:16:52;21.70;94.10
61016;DHT22;46902;52.920;6.536;2023-06-19T06:19:19;21.70;94.30
61016;DHT22;46902;52.920;6.536;2023-06-19T06:21:46;21.70;94.60
61016;DHT22;46902;52.920;6.536;2023-06-19T06:24:11;21.60;94.80
61016;DHT22;46902;52.920;6.536;2023-06-19T06:26:37;21.60;95.40
61016;DHT22;46902;52.920;6.536;2023-06-19T06:29:03;21.60;95.90
61016;DHT22;46902;52.920;6.536;2023-06-19T06:31:28;21.50;96.40
61016;DHT22;46902;52.920;6.536;2023-06-19T06:33:54;21.50;97.20
61016;DHT22;46902;52.920;6.536;2023-06-19T06:36:19;21.40;98.30
61016;DHT22;46902;52.920;6.536;2023-06-19T06:38:45;21.30;99.10
61016;DHT22;46902;52.920;6.536;2023-06-19T06:41:11;21.30;99.70
61016;DHT22;46902;52.920;6.536;2023-06-19T06:43:36;21.30;99.90
61016;DHT22;46902;52.920;6.536;2023-06-19T06:46:04;21.30;99.90
61016;DHT22;46902;52.920;6.536;2023-06-19T06:48:29;21.30;99.90
61016;DHT22;46902;52.920;6.536;2023-06-19T06:50:55;21.30;99.90
61016;DHT22;46902;52.920;6.536;2023-06-19T06:53:27;21.30;99.90
61016;DHT22;46902;52.920;6.536;2023-06-19T06:55:54;21.30;99.90
61016;DHT22;46902;52.920;6.536;2023-06-19T06:58:19;21.20;99.90
61016;DHT22;46902;52.920;6.536;2023-06-19T07:00:45;21.20;99.90
61016;DHT22;46902;52.920;6.536;2023-06-19T07:03:11;21.20;99.90
61016;DHT22;46902;52.920;6.536;2023-06-19T07:05:36;21.20;99.90
61016;DHT22;46902;52.920;6.536;2023-06-19T07:08:02;21.20;99.90
61016;DHT22;46902;52.920;6.536;2023-06-19T07:10:29;21.20;99.90
61016;DHT22;46902;52.920;6.536;2023-06-19T07:12:55;21.20;99.90
61016;DHT22;46902;52.920;6.536;2023-06-19T07:15:21;21.20;99.90
61016;DHT22;46902;52.920;6.536;2023-06-19T07:17:46;21.20;99.90
61016;DHT22;46902;52.920;6.536;2023-06-19T07:20:12;21.30;99.90
61016;DHT22;46902;52.920;6.536;2023-06-19T07:22:38;21.20;99.90
61016;DHT22;46902;52.920;6.536;2023-06-19T07:25:04;21.30;99.90
61016;DHT22;46902;52.920;6.536;2023-06-19T07:27:30;21.30;99.90
61016;DHT22;46902;52.920;6.536;2023-06-19T07:29:56;21.30;99.90
61016;DHT22;46902;52.920;6.536;2023-06-19T07:32:22;21.30;99.90
61016;DHT22;46902;52.920;6.536;2023-06-19T07:34:48;21.20;99.90
61016;DHT22;46902;52.920;6.536;2023-06-19T07:37:13;21.20;99.90
61016;DHT22;46902;52.920;6.536;2023-06-19T07:39:49;21.20;99.90
61016;DHT22;46902;52.920;6.536;2023-06-19T07:42:15;21.20;99.90
61016;DHT22;46902;52.920;6.536;2023-06-19T07:44:42;21.10;99.90
61016;DHT22;46902;52.920;6.536;2023-06-19T07:47:08;21.10;99.90
61016;DHT22;46902;52.920;6.536;2023-06-19T07:49:34;21.20;99.90
61016;DHT22;46902;52.920;6.536;2023-06-19T07:52:00;21.20;99.90
61016;DHT22;46902;52.920;6.536;2023-06-19T07:54:26;21.20;99.90
61016;DHT22;46902;52.920;6.536;2023-06-19T07:56:52;21.20;99.90
61016;DHT22;46902;52.920;6.536;2023-06-19T07:59:17;21.20;99.90
61016;DHT22;46902;52.920;6.536;2023-06-19T08:01:44;21.20;99.90
61016;DHT22;46902;52.920;6.536;2023-06-19T08:04:10;21.20;99.90
61016;DHT22;46902;52.920;6.536;2023-06-19T08:06:36;21.30;99.90
61016;DHT22;46902;52.920;6.536;2023-06-19T08:09:02;21.30;99.90
61016;DHT22;46902;52.920;6.536;2023-06-19T08:11:28;21.30;99.90
61016;DHT22;46902;52.920;6.536;2023-06-19T08:13:53;21.40;99.90
61016;DHT22;46902;52.920;6.536;2023-06-19T08:16:19;21.30;99.90
61016;DHT22;46902;52.920;6.536;2023-06-19T08:18:45;21.40;99.90
61016;DHT22;46902;52.920;6.536;2023-06-19T08:21:11;21.40;99.90
61016;DHT22;46902;52.920;6.536;2023-06-19T08:23:37;21.40;99.90
61016;DHT22;46902;52.920;6.536;2023-06-19T08:26:06;21.40;99.90
61016;DHT22;46902;52.920;6.536;2023-06-19T08:28:33;21.40;99.90
61016;DHT22;46902;52.920;6.536;2023-06-19T08:30:59;21.40;99.80
61016;DHT22;46902;52.920;6.536;2023-06-19T08:33:24;21.40;99.40
61016;DHT22;46902;52.920;6.536;2023-06-19T08:35:50;21.40;99.00
61016;DHT22;46902;52.920;6.536;2023-06-19T08:38:15;21.30;98.60
61016;DHT22;46902;52.920;6.536;2023-06-19T08:40:42;21.30;98.60
61016;DHT22;46902;52.920;6.536;2023-06-19T08:43:08;21.30;98.50
61016;DHT22;46902;52.920;6.536;2023-06-19T08:45:34;21.30;98.30
61016;DHT22;46902;52.920;6.536;2023-06-19T08:48:01;21.30;98.20
61016;DHT22;46902;52.920;6.536;2023-06-19T08:50:29;21.20;98.30
61016;DHT22;46902;52.920;6.536;2023-06-19T08:52:56;21.20;98.30
61016;DHT22;46902;52.920;6.536;2023-06-19T08:55:21;21.20;98.20
61016;DHT22;46902;52.920;6.536;2023-06-19T08:57:48;21.20;98.10
61016;DHT22;46902;52.920;6.536;2023-06-19T09:00:26;21.30;98.10
61016;DHT22;46902;52.920;6.536;2023-06-19T09:02:59;21.30;97.90
61016;DHT22;46902;52.920;6.536;2023-06-19T09:05:25;21.40;98.20
61016;DHT22;46902;52.920;6.536;2023-06-19T09:07:59;21.50;98.20
61016;DHT22;46902;52.920;6.536;2023-06-19T09:10:28;21.60;98.10
61016;DHT22;46902;52.920;6.536;2023-06-19T09:13:01;21.70;97.60
61016;DHT22;46902;52.920;6.536;2023-06-19T09:15:32;21.80;97.20
61016;DHT22;46902;52.920;6.536;2023-06-19T09:18:09;22.00;97.10
61016;DHT22;46902;52.920;6.536;2023-06-19T09:20:40;22.10;96.90
61016;DHT22;46902;52.920;6.536;2023-06-19T09:23:12;22.10;96.40
61016;DHT22;46902;52.920;6.536;2023-06-19T09:25:49;22.10;96.10
61016;DHT22;46902;52.920;6.536;2023-06-19T09:28:28;22.10;96.00
61016;DHT22;46902;52.920;6.536;2023-06-19T09:31:02;22.10;96.10
61016;DHT22;46902;52.920;6.536;2023-06-19T09:33:32;22.00;96.10
61016;DHT22;46902;52.920;6.536;2023-06-19T09:36:01;22.00;96.00
61016;DHT22;46902;52.920;6.536;2023-06-19T09:38:31;21.90;96.10
61016;DHT22;46902;52.920;6.536;2023-06-19T09:41:02;21.90;96.20
61016;DHT22;46902;52.920;6.536;2023-06-19T09:43:42;21.90;96.20
61016;DHT22;46902;52.920;6.536;2023-06-19T09:46:09;21.90;95.70
61016;DHT22;46902;52.920;6.536;2023-06-19T09:48:35;21.90;95.50
61016;DHT22;46902;52.920;6.536;2023-06-19T09:51:23;22.00;95.10
61016;DHT22;46902;52.920;6.536;2023-06-19T09:53:51;22.10;94.40
61016;DHT22;46902;52.920;6.536;2023-06-19T09:56:17;22.20;94.10
61016;DHT22;46902;52.920;6.536;2023-06-19T09:58:48;22.30;93.60
61016;DHT22;46902;52.920;6.536;2023-06-19T10:01:16;22.30;93.50
61016;DHT22;46902;52.920;6.536;2023-06-19T10:03:45;22.30;93.30
61016;DHT22;46902;52.920;6.536;2023-06-19T10:06:15;22.30;93.00
61016;DHT22;46902;52.920;6.536;2023-06-19T10:08:43;22.40;92.80
61016;DHT22;46902;52.920;6.536;2023-06-19T10:11:10;22.30;92.70
61016;DHT22;46902;52.920;6.536;2023-06-19T10:13:42;22.30;92.50
61016;DHT22;46902;52.920;6.536;2023-06-19T10:16:22;22.20;92.40
61016;DHT22;46902;52.920;6.536;2023-06-19T10:18:48;22.20;92.40
61016;DHT22;46902;52.920;6.536;2023-06-19T10:21:19;22.10;92.70
61016;DHT22;46902;52.920;6.536;2023-06-19T10:23:54;22.10;92.50
61016;DHT22;46902;52.920;6.536;2023-06-19T10:26:20;22.10;92.10
61016;DHT22;46902;52.920;6.536;2023-06-19T10:28:47;22.10;92.40
61016;DHT22;46902;52.920;6.536;2023-06-19T10:31:15;22.00;92.50
61016;DHT22;46902;52.920;6.536;2023-06-19T10:33:43;22.10;92.40
61016;DHT22;46902;52.920;6.536;2023-06-19T10:36:16;22.30;92.10
61016;DHT22;46902;52.920;6.536;2023-06-19T10:38:42;22.70;91.80
61016;DHT22;46902;52.920;6.536;2023-06-19T10:41:23;22.90;91.40
61016;DHT22;46902;52.920;6.536;2023-06-19T10:46:22;23.10;90.50
61016;DHT22;46902;52.920;6.536;2023-06-19T10:48:50;23.10;90.40
61016;DHT22;46902;52.920;6.536;2023-06-19T10:51:19;23.10;90.40
61016;DHT22;46902;52.920;6.536;2023-06-19T10:53:45;23.10;90.00
61016;DHT22;46902;52.920;6.536;2023-06-19T10:56:10;23.10;89.90
61016;DHT22;46902;52.920;6.536;2023-06-19T10:58:36;23.10;89.90
61016;DHT22;46902;52.920;6.536;2023-06-19T11:01:02;23.10;90.00
61016;DHT22;46902;52.920;6.536;2023-06-19T11:03:28;23.10;90.00
61016;DHT22;46902;52.920;6.536;2023-06-19T11:05:54;23.20;90.00
61016;DHT22;46902;52.920;6.536;2023-06-19T11:08:21;23.30;89.50
61016;DHT22;46902;52.920;6.536;2023-06-19T11:10:47;23.40;89.30
61016;DHT22;46902;52.920;6.536;2023-06-19T11:13:17;23.50;89.20
61016;DHT22;46902;52.920;6.536;2023-06-19T11:15:44;23.50;87.70
61016;DHT22;46902;52.920;6.536;2023-06-19T11:18:11;23.50;88.10
61016;DHT22;46902;52.920;6.536;2023-06-19T11:20:51;23.40;88.10
61016;DHT22;46902;52.920;6.536;2023-06-19T11:23:33;23.60;88.90
61016;DHT22;46902;52.920;6.536;2023-06-19T11:26:03;23.80;87.20
61016;DHT22;46902;52.920;6.536;2023-06-19T11:28:29;24.00;86.80
61016;DHT22;46902;52.920;6.536;2023-06-19T11:31:00;23.80;85.10
61016;DHT22;46902;52.920;6.536;2023-06-19T11:33:26;23.90;84.40
61016;DHT22;46902;52.920;6.536;2023-06-19T11:35:53;24.10;84.70
61016;DHT22;46902;52.920;6.536;2023-06-19T11:38:22;24.40;83.20
61016;DHT22;46902;52.920;6.536;2023-06-19T11:40:48;24.40;80.90
61016;DHT22;46902;52.920;6.536;2023-06-19T11:43:43;24.30;80.80
61016;DHT22;46902;52.920;6.536;2023-06-19T11:46:09;24.50;80.40
61016;DHT22;46902;52.920;6.536;2023-06-19T11:48:38;24.70;81.20
61016;DHT22;46902;52.920;6.536;2023-06-19T11:51:03;24.80;81.00
61016;DHT22;46902;52.920;6.536;2023-06-19T11:53:29;24.90;81.20
61016;DHT22;46902;52.920;6.536;2023-06-19T11:55:55;25.10;80.20
61016;DHT22;46902;52.920;6.536;2023-06-19T11:58:21;25.10;79.70
61016;DHT22;46902;52.920;6.536;2023-06-19T12:00:48;25.20;79.00
61016;DHT22;46902;52.920;6.536;2023-06-19T12:03:14;25.30;78.30
61016;DHT22;46902;52.920;6.536;2023-06-19T12:05:39;25.20;77.30
61016;DHT22;46902;52.920;6.536;2023-06-19T12:08:05;25.20;77.10
61016;DHT22;46902;52.920;6.536;2023-06-19T12:10:33;25.10;77.90
61016;DHT22;46902;52.920;6.536;2023-06-19T12:12:58;25.20;77.90
61016;DHT22;46902;52.920;6.536;2023-06-19T12:15:25;25.30;77.50
61016;DHT22;46902;52.920;6.536;2023-06-19T12:17:51;25.50;76.70
61016;DHT22;46902;52.920;6.536;2023-06-19T12:20:17;25.50;76.80
61016;DHT22;46902;52.920;6.536;2023-06-19T12:22:43;25.40;76.40
61016;DHT22;46902;52.920;6.536;2023-06-19T12:25:09;25.20;76.60
61016;DHT22;46902;52.920;6.536;2023-06-19T12:27:34;25.10;77.40
61016;DHT22;46902;52.920;6.536;2023-06-19T12:30:00;25.00;76.80
61016;DHT22;46902;52.920;6.536;2023-06-19T12:32:26;25.00;76.60
61016;DHT22;46902;52.920;6.536;2023-06-19T12:34:52;24.80;76.40
61016;DHT22;46902;52.920;6.536;2023-06-19T12:37:20;24.80;76.90
61016;DHT22;46902;52.920;6.536;2023-06-19T12:39:47;24.90;76.90
61016;DHT22;46902;52.920;6.536;2023-06-19T12:42:12;25.20;76.40
61016;DHT22;46902;52.920;6.536;2023-06-19T12:44:39;25.50;76.20
61016;DHT22;46902;52.920;6.536;2023-06-19T12:47:05;25.90;75.30
61016;DHT22;46902;52.920;6.536;2023-06-19T12:49:31;26.10;73.80
61016;DHT22;46902;52.920;6.536;2023-06-19T12:51:57;26.30;73.40
61016;DHT22;46902;52.920;6.536;2023-06-19T12:54:23;26.50;73.30
61016;DHT22;46902;52.920;6.536;2023-06-19T12:56:49;26.60;71.50
61016;DHT22;46902;52.920;6.536;2023-06-19T12:59:15;26.50;70.90
61016;DHT22;46902;52.920;6.536;2023-06-19T13:01:41;26.70;72.00
61016;DHT22;46902;52.920;6.536;2023-06-19T13:04:07;26.70;71.00
61016;DHT22;46902;52.920;6.536;2023-06-19T13:06:32;26.60;71.70
61016;DHT22;46902;52.920;6.536;2023-06-19T13:08:58;26.60;71.60
61016;DHT22;46902;52.920;6.536;2023-06-19T13:11:23;26.80;71.40
61016;DHT22;46902;52.920;6.536;2023-06-19T13:13:49;27.10;70.90
61016;DHT22;46902;52.920;6.536;2023-06-19T13:16:15;27.30;69.10
61016;DHT22;46902;52.920;6.536;2023-06-19T13:18:41;27.30;67.50
61016;DHT22;46902;52.920;6.536;2023-06-19T13:21:07;27.30;67.30
61016;DHT22;46902;52.920;6.536;2023-06-19T13:23:33;27.30;68.00
61016;DHT22;46902;52.920;6.536;2023-06-19T13:25:58;27.30;67.50
61016;DHT22;46902;52.920;6.536;2023-06-19T13:28:24;27.20;67.50
61016;DHT22;46902;52.920;6.536;2023-06-19T13:30:50;27.30;67.00
61016;DHT22;46902;52.920;6.536;2023-06-19T13:33:16;27.20;66.60
61016;DHT22;46902;52.920;6.536;2023-06-19T13:35:42;27.40;65.70
61016;DHT22;46902;52.920;6.536;2023-06-19T13:38:08;27.50;64.70
61016;DHT22;46902;52.920;6.536;2023-06-19T13:40:35;27.70;64.10
61016;DHT22;46902;52.920;6.536;2023-06-19T13:43:01;27.80;63.90
61016;DHT22;46902;52.920;6.536;2023-06-19T13:45:28;27.90;63.70
61016;DHT22;46902;52.920;6.536;2023-06-19T13:47:53;28.00;63.30
61016;DHT22;46902;52.920;6.536;2023-06-19T13:50:19;28.20;63.20
61016;DHT22;46902;52.920;6.536;2023-06-19T13:52:47;28.20;62.00
61016;DHT22;46902;52.920;6.536;2023-06-19T13:55:13;28.30;61.90
61016;DHT22;46902;52.920;6.536;2023-06-19T13:57:40;28.30;61.50
61016;DHT22;46902;52.920;6.536;2023-06-19T14:00:07;28.20;60.90
61016;DHT22;46902;52.920;6.536;2023-06-19T14:02:34;28.20;61.00
61016;DHT22;46902;52.920;6.536;2023-06-19T14:04:59;28.20;60.50
61016;DHT22;46902;52.920;6.536;2023-06-19T14:07:25;28.20;61.30
61016;DHT22;46902;52.920;6.536;2023-06-19T14:09:52;28.20;61.70
61016;DHT22;46902;52.920;6.536;2023-06-19T14:12:19;28.30;61.00
61016;DHT22;46902;52.920;6.536;2023-06-19T14:14:44;28.30;61.00
61016;DHT22;46902;52.920;6.536;2023-06-19T14:17:10;28.30;60.40
61016;DHT22;46902;52.920;6.536;2023-06-19T14:19:35;28.40;60.60
61016;DHT22;46902;52.920;6.536;2023-06-19T14:22:01;28.30;60.90
61016;DHT22;46902;52.920;6.536;2023-06-19T14:24:27;28.30;59.50
61016;DHT22;46902;52.920;6.536;2023-06-19T14:26:53;28.30;58.70
61016;DHT22;46902;52.920;6.536;2023-06-19T14:29:18;28.30;59.00
61016;DHT22;46902;52.920;6.536;2023-06-19T14:31:46;28.40;59.80
61016;DHT22;46902;52.920;6.536;2023-06-19T14:34:11;28.30;58.50
61016;DHT22;46902;52.920;6.536;2023-06-19T14:36:38;28.30;58.20
61016;DHT22;46902;52.920;6.536;2023-06-19T14:39:03;28.40;58.60
61016;DHT22;46902;52.920;6.536;2023-06-19T14:41:29;28.40;58.30
61016;DHT22;46902;52.920;6.536;2023-06-19T14:43:54;28.40;58.80
61016;DHT22;46902;52.920;6.536;2023-06-19T14:46:20;28.40;58.60
61016;DHT22;46902;52.920;6.536;2023-06-19T14:48:46;28.40;58.70
61016;DHT22;46902;52.920;6.536;2023-06-19T14:51:12;28.40;58.50
61016;DHT22;46902;52.920;6.536;2023-06-19T14:53:37;28.30;58.10
61016;DHT22;46902;52.920;6.536;2023-06-19T14:56:03;28.30;57.30
61016;DHT22;46902;52.920;6.536;2023-06-19T14:58:29;28.20;57.00
61016;DHT22;46902;52.920;6.536;2023-06-19T15:00:55;28.00;57.60
61016;DHT22;46902;52.920;6.536;2023-06-19T15:03:21;28.00;58.90
61016;DHT22;46902;52.920;6.536;2023-06-19T15:05:46;27.90;58.10
61016;DHT22;46902;52.920;6.536;2023-06-19T15:08:12;28.00;58.70
61016;DHT22;46902;52.920;6.536;2023-06-19T15:10:38;28.00;57.60
61016;DHT22;46902;52.920;6.536;2023-06-19T15:13:03;28.00;57.10
61016;DHT22;46902;52.920;6.536;2023-06-19T15:15:30;28.00;56.90
61016;DHT22;46902;52.920;6.536;2023-06-19T15:17:56;28.00;57.10
61016;DHT22;46902;52.920;6.536;2023-06-19T15:20:23;28.10;57.00
61016;DHT22;46902;52.920;6.536;2023-06-19T15:22:48;28.10;54.80
61016;DHT22;46902;52.920;6.536;2023-06-19T15:25:14;28.00;55.30
61016;DHT22;46902;52.920;6.536;2023-06-19T15:27:40;28.00;56.40
61016;DHT22;46902;52.920;6.536;2023-06-19T15:30:06;27.90;55.90
61016;DHT22;46902;52.920;6.536;2023-06-19T15:32:32;27.90;55.40
61016;DHT22;46902;52.920;6.536;2023-06-19T15:34:57;28.00;54.10